Time;durP1;ratioP1;P1;durP2;ratioP2;P2;SDS_P1;SDS_P2;PMS_P1;PMS_P2;Temp;Humidity;BMP_temperature;BMP_pressure;BME280_temperature;BME280_humidity;BME280_pressure;Samples;Min_cycle;Max_cycle;Signal;HPM_P1;HPM_P2
2021/09/25 00:01:17;;;;;;;6.50;5.40;;;12.60;99.90;;;;;;5033045;28;20447;-72
2021/09/25 00:04:03;;;;;;;6.60;4.90;;;12.60;99.90;;;;;;5035001;28;20561;-72
2021/09/25 00:06:49;;;;;;;6.27;5.03;;;12.70;99.90;;;;;;5035300;28;20512;-72
2021/09/25 00:09:36;;;;;;;7.20;4.87;;;12.80;99.90;;;;;;5031259;28;20489;-72
2021/09/25 00:12:21;;;;;;;6.53;4.40;;;12.90;99.90;;;;;;5035733;28;20415;-72
2021/09/25 00:15:08;;;;;;;7.20;5.33;;;12.90;99.90;;;;;;5040983;28;20423;-72
2021/09/25 00:17:54;;;;;;;11.47;5.00;;;12.80;99.90;;;;;;5040762;28;20444;-72
2021/09/25 00:20:40;;;;;;;9.17;5.57;;;12.70;99.90;;;;;;5037041;28;20516;-72
2021/09/25 00:23:26;;;;;;;7.53;5.03;;;12.60;99.90;;;;;;5037604;28;20922;-72
2021/09/25 00:26:13;;;;;;;7.07;5.90;;;12.60;99.90;;;;;;5038797;28;20502;-72
2021/09/25 00:28:58;;;;;;;7.03;5.47;;;12.60;99.90;;;;;;5039675;28;20591;-72
2021/09/25 00:31:44;;;;;;;7.00;5.20;;;12.80;99.90;;;;;;5040162;28;20890;-72
2021/09/25 00:34:30;;;;;;;9.10;5.37;;;12.80;99.90;;;;;;5029857;28;20501;-72
2021/09/25 00:37:15;;;;;;;6.63;5.10;;;12.90;99.90;;;;;;5032404;28;20468;-72
2021/09/25 00:40:01;;;;;;;6.60;4.67;;;13.00;99.90;;;;;;5035189;28;20439;-72
2021/09/25 00:42:48;;;;;;;12.07;5.57;;;13.10;99.90;;;;;;5040493;28;20407;-72
2021/09/25 00:45:34;;;;;;;8.17;4.93;;;13.00;99.90;;;;;;5031884;28;20418;-72
2021/09/25 00:48:19;;;;;;;5.40;4.63;;;13.00;99.90;;;;;;5037554;28;20607;-72
2021/09/25 00:51:05;;;;;;;5.57;4.20;;;12.90;99.90;;;;;;5042287;28;20447;-72
2021/09/25 00:53:51;;;;;;;6.00;4.70;;;12.90;99.90;;;;;;5032803;28;20459;-72
2021/09/25 00:56:37;;;;;;;8.10;5.63;;;12.80;99.90;;;;;;5036530;28;21011;-72
2021/09/25 00:59:25;;;;;;;4.50;3.97;;;12.70;99.90;;;;;;5022827;28;20496;-72
2021/09/25 01:02:11;;;;;;;5.27;4.57;;;12.40;99.90;;;;;;5042038;28;20995;-72
2021/09/25 01:04:57;;;;;;;5.57;4.47;;;12.40;99.90;;;;;;5037038;28;20434;-72
2021/09/25 01:07:42;;;;;;;9.20;5.27;;;12.40;99.90;;;;;;5028824;28;20424;-72
2021/09/25 01:10:28;;;;;;;6.47;5.20;;;12.40;99.90;;;;;;5032943;28;20467;-72
2021/09/25 01:13:14;;;;;;;5.10;4.60;;;12.50;99.90;;;;;;5020315;28;20468;-72
2021/09/25 01:16:01;;;;;;;6.27;4.80;;;12.50;99.90;;;;;;5032783;28;20533;-72
2021/09/25 01:18:47;;;;;;;7.07;4.37;;;12.50;99.90;;;;;;5035275;28;20567;-72
2021/09/25 01:21:34;;;;;;;6.93;5.03;;;12.40;99.90;;;;;;5029365;28;20423;-72
2021/09/25 01:24:20;;;;;;;6.40;4.97;;;12.20;99.90;;;;;;5042472;28;20505;-72
2021/09/25 01:27:06;;;;;;;6.10;4.83;;;12.20;99.90;;;;;;5040372;28;20452;-72
2021/09/25 01:29:52;;;;;;;6.17;4.70;;;12.10;99.90;;;;;;5036215;28;20520;-72
2021/09/25 01:32:38;;;;;;;6.63;5.53;;;12.10;99.90;;;;;;5051737;28;20403;-72
2021/09/25 01:35:24;;;;;;;7.87;5.33;;;12.10;99.90;;;;;;5021654;28;20515;-73
2021/09/25 01:38:12;;;;;;;7.63;4.63;;;12.20;99.90;;;;;;5030905;28;20807;-73
2021/09/25 01:40:58;;;;;;;10.67;4.70;;;12.20;99.90;;;;;;5039226;28;20574;-73
2021/09/25 01:43:44;;;;;;;5.40;4.57;;;12.30;99.90;;;;;;5031765;28;20442;-72
2021/09/25 01:46:30;;;;;;;6.73;5.30;;;12.30;99.90;;;;;;5031620;28;20955;-74
2021/09/25 01:49:15;;;;;;;5.53;4.50;;;12.30;99.90;;;;;;5033107;28;20529;-73
2021/09/25 01:52:01;;;;;;;6.37;4.37;;;12.30;99.90;;;;;;5039204;28;20607;-72
2021/09/25 01:54:48;;;;;;;6.07;4.60;;;12.30;99.90;;;;;;5030617;28;20445;-73
2021/09/25 01:57:34;;;;;;;5.53;4.40;;;12.30;99.90;;;;;;5036724;28;20454;-72
2021/09/25 02:00:20;;;;;;;5.87;5.20;;;12.20;99.90;;;;;;5038336;28;20828;-73
2021/09/25 02:03:11;;;;;;;6.17;4.40;;;12.00;99.90;;;;;;5038935;28;20432;-72
2021/09/25 02:05:57;;;;;;;5.23;4.50;;;12.00;99.90;;;;;;5038137;28;20423;-72
2021/09/25 02:08:45;;;;;;;5.47;4.97;;;12.00;99.90;;;;;;5037464;28;20982;-72
2021/09/25 02:11:32;;;;;;;7.57;4.93;;;11.90;99.90;;;;;;5028654;28;20454;-72
2021/09/25 02:14:18;;;;;;;5.07;4.30;;;11.90;99.90;;;;;;5029686;28;20952;-72
2021/09/25 02:17:04;;;;;;;7.23;4.53;;;11.90;99.90;;;;;;5036773;28;20551;-73
2021/09/25 02:19:50;;;;;;;5.37;4.87;;;12.00;99.90;;;;;;5042611;28;20808;-72
2021/09/25 02:22:36;;;;;;;9.60;5.47;;;12.00;99.90;;;;;;5041850;28;20572;-72
2021/09/25 02:25:22;;;;;;;5.33;4.40;;;12.00;99.90;;;;;;5035568;28;20463;-72
2021/09/25 02:28:09;;;;;;;5.70;4.77;;;12.00;99.90;;;;;;5035777;28;20545;-72
2021/09/25 02:30:55;;;;;;;6.70;5.03;;;11.90;99.90;;;;;;5038119;28;21058;-73
2021/09/25 02:33:41;;;;;;;6.70;4.90;;;11.80;99.90;;;;;;5041309;28;20526;-72
2021/09/25 02:36:27;;;;;;;11.73;5.53;;;11.80;99.90;;;;;;5039896;28;20470;-72
2021/09/25 02:39:12;;;;;;;5.30;4.67;;;11.70;99.90;;;;;;5034824;28;20466;-73
2021/09/25 02:41:59;;;;;;;7.10;4.67;;;11.60;99.90;;;;;;5037009;28;20858;-72
2021/09/25 02:44:45;;;;;;;6.47;4.60;;;11.60;99.90;;;;;;5031443;28;20455;-72
2021/09/25 02:47:31;;;;;;;6.23;4.57;;;11.70;99.90;;;;;;5035061;28;20447;-72
2021/09/25 02:50:18;;;;;;;6.33;4.87;;;11.60;99.90;;;;;;5034852;28;20503;-72
2021/09/25 02:53:04;;;;;;;5.53;4.93;;;11.60;99.90;;;;;;5044498;28;20534;-72
2021/09/25 02:55:49;;;;;;;8.23;5.23;;;11.60;99.90;;;;;;5038084;28;20460;-72
2021/09/25 02:58:35;;;;;;;6.00;4.60;;;11.60;99.90;;;;;;5040879;28;20440;-72
2021/09/25 03:01:22;;;;;;;7.83;4.87;;;11.60;99.90;;;;;;5034442;28;20459;-72
2021/09/25 03:04:08;;;;;;;6.10;5.33;;;11.50;99.90;;;;;;5042582;28;20451;-73
2021/09/25 03:06:54;;;;;;;5.80;4.27;;;11.60;99.90;;;;;;5037825;28;20422;-72
2021/09/25 03:09:39;;;;;;;5.53;4.77;;;11.50;99.90;;;;;;5038966;28;20485;-72
2021/09/25 03:12:25;;;;;;;6.33;4.87;;;11.60;99.90;;;;;;5029657;28;20443;-72
2021/09/25 03:15:11;;;;;;;8.30;4.77;;;11.70;99.90;;;;;;5034343;28;20526;-72
2021/09/25 03:17:59;;;;;;;5.90;4.83;;;11.70;99.90;;;;;;5040926;28;20461;-73
2021/09/25 03:20:45;;;;;;;6.33;4.53;;;11.60;99.90;;;;;;5038451;28;20507;-72
2021/09/25 03:23:30;;;;;;;6.30;4.70;;;11.60;99.90;;;;;;5038099;28;20438;-72
2021/09/25 03:26:16;;;;;;;5.87;4.87;;;11.70;99.90;;;;;;5044910;28;20449;-72
2021/09/25 03:29:02;;;;;;;7.50;4.60;;;11.80;99.90;;;;;;5045367;28;20566;-72
2021/09/25 03:31:49;;;;;;;6.70;5.17;;;11.90;99.90;;;;;;5047256;28;20538;-72
2021/09/25 03:34:36;;;;;;;9.27;5.47;;;11.90;99.90;;;;;;5041356;28;20431;-73
2021/09/25 03:37:21;;;;;;;12.70;6.07;;;12.00;99.90;;;;;;5029337;28;20472;-73
2021/09/25 03:40:08;;;;;;;9.40;6.00;;;12.00;99.90;;;;;;5039173;28;20435;-72
2021/09/25 03:42:55;;;;;;;8.03;5.53;;;12.00;99.90;;;;;;5031451;28;20468;-73
2021/09/25 03:45:41;;;;;;;45.17;7.00;;;12.00;99.90;;;;;;5038487;28;20444;-72
2021/09/25 03:48:27;;;;;;;15.37;6.83;;;11.80;99.90;;;;;;5042095;22;20558;-73
2021/09/25 03:51:14;;;;;;;15.23;6.80;;;11.70;99.90;;;;;;5002064;28;20474;-74
2021/09/25 03:54:00;;;;;;;22.27;7.73;;;11.50;99.90;;;;;;5010232;28;20595;-74
2021/09/25 03:56:46;;;;;;;49.83;7.13;;;11.50;99.90;;;;;;5004602;28;20469;-74
2021/09/25 03:59:32;;;;;;;16.53;7.33;;;11.40;99.90;;;;;;5006820;28;20865;-74
2021/09/25 04:02:17;;;;;;;8.27;6.40;;;11.20;99.90;;;;;;5008441;28;20450;-72
2021/09/25 04:05:03;;;;;;;9.30;6.37;;;11.10;99.90;;;;;;5011656;28;20453;-75
2021/09/25 04:07:50;;;;;;;9.17;6.37;;;11.10;99.90;;;;;;5012802;28;20456;-74
2021/09/25 04:10:36;;;;;;;10.83;7.37;;;11.20;99.90;;;;;;5009584;28;20523;-72
2021/09/25 04:13:22;;;;;;;15.27;6.90;;;11.40;99.90;;;;;;5005862;28;20399;-74
2021/09/25 04:16:07;;;;;;;11.03;6.90;;;11.50;99.90;;;;;;5008558;28;20941;-75
2021/09/25 04:18:53;;;;;;;7.20;5.47;;;11.60;99.90;;;;;;5010697;28;20831;-74
2021/09/25 04:21:38;;;;;;;20.67;6.63;;;11.60;99.90;;;;;;5006515;28;20445;-74
2021/09/25 04:24:25;;;;;;;8.20;6.50;;;11.40;99.90;;;;;;5006023;28;20565;-72
2021/09/25 04:27:12;;;;;;;15.40;5.63;;;11.30;99.90;;;;;;5008223;28;20974;-74
2021/09/25 04:29:59;;;;;;;6.83;5.30;;;11.20;99.90;;;;;;5010884;28;20573;-74
2021/09/25 04:32:44;;;;;;;7.60;5.83;;;11.10;99.90;;;;;;5013974;28;20451;-74
2021/09/25 04:35:30;;;;;;;9.50;6.67;;;11.20;99.90;;;;;;5012168;28;20438;-74
2021/09/25 04:38:16;;;;;;;15.37;6.17;;;11.30;99.90;;;;;;5005499;28;20615;-74
2021/09/25 04:41:03;;;;;;;8.00;6.27;;;11.40;99.90;;;;;;5006191;28;20440;-73
2021/09/25 04:43:49;;;;;;;14.97;6.67;;;11.40;99.90;;;;;;5011430;28;20448;-74
2021/09/25 04:46:35;;;;;;;27.10;6.70;;;11.30;99.90;;;;;;5001078;28;20435;-74
2021/09/25 04:49:22;;;;;;;8.03;5.70;;;11.20;99.90;;;;;;5010310;28;20496;-74
2021/09/25 04:52:08;;;;;;;8.40;6.20;;;11.10;99.90;;;;;;5005727;28;20758;-74
2021/09/25 04:54:54;;;;;;;10.77;6.07;;;11.20;99.90;;;;;;5009474;28;20491;-74
2021/09/25 04:57:40;;;;;;;8.10;6.43;;;11.20;99.90;;;;;;5012796;28;20479;-74
2021/09/25 05:00:26;;;;;;;7.00;5.87;;;11.10;99.90;;;;;;5006591;28;20543;-74
2021/09/25 05:03:12;;;;;;;16.53;5.70;;;11.10;99.90;;;;;;5007483;28;20443;-74
2021/09/25 05:05:58;;;;;;;18.60;5.80;;;11.00;99.90;;;;;;5014813;28;20480;-74
2021/09/25 05:08:44;;;;;;;9.00;5.47;;;11.00;99.90;;;;;;5010756;28;20464;-74
2021/09/25 05:11:30;;;;;;;8.63;7.20;;;11.00;99.90;;;;;;5009658;28;20881;-74
2021/09/25 05:14:17;;;;;;;7.40;6.30;;;11.10;99.90;;;;;;5000417;28;21012;-73
2021/09/25 05:17:03;;;;;;;14.23;6.00;;;11.30;99.90;;;;;;5004506;28;20467;-75
2021/09/25 05:19:48;;;;;;;6.43;5.63;;;11.30;99.90;;;;;;5007240;28;20507;-74
2021/09/25 05:22:34;;;;;;;17.60;6.57;;;11.40;99.90;;;;;;5002346;28;20592;-74
2021/09/25 05:25:20;;;;;;;21.73;5.60;;;11.40;99.90;;;;;;5009820;28;20499;-74
2021/09/25 05:28:06;;;;;;;8.97;5.43;;;11.20;99.90;;;;;;5011453;28;20429;-73
2021/09/25 05:30:53;;;;;;;6.90;6.00;;;10.90;99.90;;;;;;5010914;28;20498;-74
2021/09/25 05:33:39;;;;;;;6.40;5.20;;;11.00;99.90;;;;;;4993076;28;20415;-74
2021/09/25 05:36:24;;;;;;;10.40;5.90;;;11.00;99.90;;;;;;5014569;28;20475;-74
2021/09/25 05:39:10;;;;;;;18.67;5.80;;;11.00;99.90;;;;;;5006365;28;20614;-73
2021/09/25 05:41:55;;;;;;;6.60;5.10;;;11.00;99.90;;;;;;4998993;28;20580;-74
2021/09/25 05:44:45;;;;;;;5.90;5.27;;;10.90;99.90;;;;;;5010196;28;20456;-74
2021/09/25 05:47:32;;;;;;;7.13;5.90;;;11.00;99.90;;;;;;5009515;28;20457;-74
2021/09/25 05:50:18;;;;;;;7.00;5.60;;;11.10;99.90;;;;;;5004752;28;20434;-74
2021/09/25 05:53:04;;;;;;;6.60;5.60;;;11.10;99.90;;;;;;5010935;28;20838;-75
2021/09/25 05:55:49;;;;;;;5.60;4.97;;;11.20;99.90;;;;;;5006923;28;20951;-74
2021/09/25 05:58:35;;;;;;;29.87;6.50;;;11.20;99.90;;;;;;5005957;28;20536;-74
2021/09/25 06:01:21;;;;;;;67.77;7.40;;;11.30;99.90;;;;;;5003891;28;20492;-75
2021/09/25 06:04:08;;;;;;;38.17;6.80;;;11.00;99.90;;;;;;5009632;28;20422;-73
2021/09/25 06:06:54;;;;;;;26.93;7.90;;;10.90;99.90;;;;;;5007303;28;20546;-74
2021/09/25 06:09:39;;;;;;;13.53;7.10;;;10.90;99.90;;;;;;5006154;28;20606;-74
2021/09/25 06:12:25;;;;;;;5.97;5.00;;;10.80;99.90;;;;;;5009068;28;20498;-73
2021/09/25 06:15:12;;;;;;;6.30;5.13;;;10.80;99.90;;;;;;5007601;28;21189;-74
2021/09/25 06:17:59;;;;;;;8.77;5.77;;;11.00;99.90;;;;;;5007111;28;20541;-74
2021/09/25 06:20:46;;;;;;;90.60;7.80;;;11.00;99.90;;;;;;5007394;28;20496;-75
2021/09/25 06:23:32;;;;;;;41.73;6.53;;;11.00;99.90;;;;;;5009643;28;20548;-75
2021/09/25 06:26:17;;;;;;;6.53;5.10;;;11.00;99.90;;;;;;5003488;28;20431;-75
2021/09/25 06:29:03;;;;;;;8.43;5.00;;;11.10;99.90;;;;;;5008047;28;20479;-75
2021/09/25 06:31:49;;;;;;;6.30;5.70;;;11.10;99.90;;;;;;5006737;28;20517;-73
2021/09/25 06:34:34;;;;;;;7.47;6.47;;;11.20;99.90;;;;;;5008016;28;20468;-74
2021/09/25 06:37:21;;;;;;;10.37;7.17;;;11.30;99.90;;;;;;5011229;28;20526;-75
2021/09/25 06:40:09;;;;;;;8.37;6.33;;;11.40;99.90;;;;;;5009781;28;20460;-75
2021/09/25 06:42:54;;;;;;;7.10;5.77;;;11.50;99.90;;;;;;5008068;28;20527;-75
2021/09/25 06:45:40;;;;;;;6.43;5.27;;;11.50;99.90;;;;;;5007118;28;20426;-73
2021/09/25 06:48:26;;;;;;;7.07;5.20;;;11.60;99.90;;;;;;5003925;28;20532;-74
2021/09/25 06:51:12;;;;;;;5.97;4.07;;;11.60;99.90;;;;;;5001222;28;20452;-75
2021/09/25 06:54:00;;;;;;;7.83;5.40;;;11.70;99.90;;;;;;5006208;28;20452;-74
2021/09/25 06:56:45;;;;;;;6.00;5.03;;;11.80;99.90;;;;;;5006857;28;20400;-74
2021/09/25 06:59:31;;;;;;;6.63;4.60;;;11.90;99.90;;;;;;5004441;28;20467;-75
2021/09/25 07:02:16;;;;;;;5.67;4.77;;;12.00;99.90;;;;;;5008999;28;20967;-74
2021/09/25 07:05:02;;;;;;;7.27;4.47;;;12.10;99.90;;;;;;4992494;28;20405;-75
2021/09/25 07:07:49;;;;;;;6.33;5.33;;;12.30;99.90;;;;;;5003111;28;20915;-75
2021/09/25 07:10:37;;;;;;;5.43;4.77;;;12.30;99.90;;;;;;4991008;28;21038;-74
2021/09/25 07:13:22;;;;;;;5.40;4.80;;;12.30;99.90;;;;;;4990641;28;20400;-75
2021/09/25 07:16:09;;;;;;;5.03;4.53;;;12.30;99.90;;;;;;4998939;28;20559;-75
2021/09/25 07:18:55;;;;;;;5.80;4.70;;;12.40;99.90;;;;;;5008664;28;22863;-75
2021/09/25 07:21:41;;;;;;;5.93;4.80;;;12.50;99.90;;;;;;5010243;28;20411;-74
2021/09/25 07:24:27;;;;;;;6.27;4.97;;;12.60;99.90;;;;;;5011447;28;20426;-74
2021/09/25 07:27:14;;;;;;;6.30;5.03;;;12.70;99.90;;;;;;5008277;28;20500;-75
2021/09/25 07:30:00;;;;;;;6.00;5.03;;;12.90;99.90;;;;;;5008110;28;20479;-74
2021/09/25 07:32:46;;;;;;;6.07;5.20;;;13.00;99.90;;;;;;5007712;28;20431;-75
2021/09/25 07:35:34;;;;;;;6.30;5.50;;;13.10;99.90;;;;;;5007396;28;20431;-74
2021/09/25 07:38:19;;;;;;;6.07;5.20;;;13.20;99.90;;;;;;5004045;28;20451;-74
2021/09/25 07:41:05;;;;;;;5.60;4.63;;;13.30;99.90;;;;;;5006362;28;20966;-73
2021/09/25 07:43:53;;;;;;;6.23;4.70;;;13.50;99.90;;;;;;5013246;28;20448;-75
2021/09/25 07:46:40;;;;;;;5.13;4.47;;;13.60;99.90;;;;;;5009209;28;20421;-73
2021/09/25 07:49:26;;;;;;;5.83;5.20;;;13.80;99.90;;;;;;5002708;28;20440;-71
2021/09/25 07:52:12;;;;;;;7.43;4.30;;;14.00;99.90;;;;;;5014300;28;20392;-71
2021/09/25 07:54:57;;;;;;;6.83;4.17;;;14.10;99.90;;;;;;5004251;28;20440;-72
2021/09/25 07:57:44;;;;;;;5.80;4.83;;;14.20;99.90;;;;;;5012985;28;20489;-72
2021/09/25 08:00:31;;;;;;;6.57;5.87;;;14.30;99.90;;;;;;5007291;28;20944;-72
2021/09/25 08:03:17;;;;;;;5.40;4.50;;;14.40;99.90;;;;;;5006530;28;20535;-72
2021/09/25 08:06:03;;;;;;;6.07;4.70;;;14.50;99.90;;;;;;5012360;28;20787;-72
2021/09/25 08:08:49;;;;;;;5.10;4.50;;;14.70;99.90;;;;;;5011867;28;20817;-72
2021/09/25 08:11:35;;;;;;;5.17;4.23;;;14.90;99.90;;;;;;5012965;28;20992;-72
2021/09/25 08:14:20;;;;;;;6.13;4.73;;;15.00;99.90;;;;;;5005597;28;20789;-73
2021/09/25 08:17:07;;;;;;;6.10;4.47;;;15.10;99.90;;;;;;5009517;28;20420;-72
2021/09/25 08:19:53;;;;;;;4.93;4.30;;;15.30;99.90;;;;;;5012768;28;20951;-72
2021/09/25 08:22:39;;;;;;;5.73;4.93;;;15.40;99.90;;;;;;5012755;28;20978;-72
2021/09/25 08:25:25;;;;;;;6.00;5.10;;;15.50;99.90;;;;;;5007245;28;20470;-71
2021/09/25 08:28:10;;;;;;;5.30;4.77;;;15.70;99.90;;;;;;5003501;28;20547;-75
2021/09/25 08:30:56;;;;;;;5.90;4.70;;;15.80;99.90;;;;;;5008314;28;20436;-75
2021/09/25 08:33:44;;;;;;;5.73;4.30;;;15.90;99.90;;;;;;5011637;28;20538;-75
2021/09/25 08:36:30;;;;;;;5.83;4.83;;;16.00;99.90;;;;;;5013342;28;20572;-74
2021/09/25 08:39:17;;;;;;;8.20;4.77;;;16.10;99.90;;;;;;5004776;28;20452;-74
2021/09/25 08:42:03;;;;;;;6.67;4.33;;;16.30;99.90;;;;;;5010786;28;20405;-75
2021/09/25 08:44:52;;;;;;;5.67;4.43;;;16.40;99.90;;;;;;5004343;28;20798;-75
2021/09/25 08:47:38;;;;;;;4.17;3.70;;;16.60;99.90;;;;;;5023338;28;20781;-72
2021/09/25 08:50:26;;;;;;;7.07;5.03;;;16.70;99.90;;;;;;5023364;28;20428;-74
2021/09/25 08:53:11;;;;;;;5.77;4.37;;;16.80;99.90;;;;;;5011985;28;20928;-74
2021/09/25 08:55:57;;;;;;;5.97;4.63;;;17.00;99.90;;;;;;5010029;28;20433;-73
2021/09/25 08:58:45;;;;;;;8.33;4.83;;;17.10;99.90;;;;;;5004865;28;21005;-73
2021/09/25 09:01:30;;;;;;;6.27;4.90;;;17.30;99.90;;;;;;5007396;28;20940;-72
2021/09/25 09:04:17;;;;;;;8.30;4.80;;;17.50;99.90;;;;;;5007793;28;20499;-74
2021/09/25 09:07:14;;;;;;;7.63;6.50;;;17.60;99.90;;;;;;5005429;28;20938;-75
2021/09/25 09:10:00;;;;;;;9.63;8.23;;;17.70;99.90;;;;;;5004231;28;21015;-75
2021/09/25 09:12:45;;;;;;;10.33;7.57;;;17.80;99.90;;;;;;5001537;28;20493;-75
2021/09/25 09:15:32;;;;;;;8.17;6.83;;;18.00;99.90;;;;;;5002616;28;20441;-74
2021/09/25 09:18:20;;;;;;;8.67;7.30;;;18.20;99.90;;;;;;4999754;28;21015;-76
2021/09/25 09:21:09;;;;;;;11.70;7.40;;;18.30;99.90;;;;;;5006197;28;20968;-76
2021/09/25 09:23:59;;;;;;;9.63;7.00;;;18.50;99.90;;;;;;5006787;28;20968;-75
2021/09/25 09:26:45;;;;;;;8.83;6.80;;;18.60;99.90;;;;;;5010817;28;20498;-76
2021/09/25 09:29:33;;;;;;;10.57;7.00;;;18.80;99.90;;;;;;5006061;28;20468;-76
2021/09/25 09:32:19;;;;;;;12.27;6.30;;;19.00;99.90;;;;;;5003492;28;20436;-76
2021/09/25 09:35:09;;;;;;;7.90;6.10;;;19.10;99.90;;;;;;5010377;28;20423;-75
2021/09/25 09:37:58;;;;;;;8.50;6.07;;;19.30;99.90;;;;;;5009511;28;20452;-75
2021/09/25 09:40:51;;;;;;;9.30;6.20;;;19.40;99.90;;;;;;5011586;28;20423;-75
2021/09/25 09:43:37;;;;;;;8.00;6.73;;;19.60;99.90;;;;;;5011040;28;20462;-76
2021/09/25 09:46:38;;;;;;;7.03;6.33;;;19.70;99.90;;;;;;5007391;28;20449;-76
2021/09/25 09:49:25;;;;;;;23.37;6.63;;;19.90;99.90;;;;;;5011959;22;20541;-74
2021/09/25 09:52:14;;;;;;;12.53;5.80;;;20.00;99.90;;;;;;5019489;28;20447;-73
2021/09/25 09:55:00;;;;;;;8.50;6.40;;;20.10;99.90;;;;;;5019564;28;20591;-74
2021/09/25 09:57:59;;;;;;;8.33;5.60;;;20.30;99.90;;;;;;5020543;28;20990;-75
2021/09/25 10:00:45;;;;;;;7.70;5.03;;;20.50;99.90;;;;;;5019748;28;20445;-75
2021/09/25 10:03:30;;;;;;;24.00;5.97;;;20.60;99.90;;;;;;5020974;28;20451;-75
2021/09/25 10:06:16;;;;;;;8.77;5.63;;;20.80;99.90;;;;;;5025182;28;20442;-75
2021/09/25 10:09:03;;;;;;;7.93;5.07;;;21.00;99.90;;;;;;5026449;28;20475;-75
2021/09/25 10:11:52;;;;;;;6.60;5.37;;;21.20;99.90;;;;;;5019934;28;21067;-75
2021/09/25 10:14:42;;;;;;;8.10;6.60;;;21.40;99.90;;;;;;5020548;28;20801;-75
2021/09/25 10:17:27;;;;;;;11.43;5.80;;;21.50;99.90;;;;;;5021059;28;20447;-75
2021/09/25 10:20:13;;;;;;;7.90;6.30;;;21.70;98.80;;;;;;5023797;28;20470;-75
2021/09/25 10:23:00;;;;;;;5.63;4.90;;;21.80;99.90;;;;;;5012651;28;20860;-75
2021/09/25 10:25:46;;;;;;;6.47;5.27;;;22.10;99.90;;;;;;5027898;28;20533;-75
2021/09/25 10:28:33;;;;;;;9.67;4.73;;;22.20;99.60;;;;;;5030601;28;20470;-75
2021/09/25 10:31:20;;;;;;;11.70;6.20;;;22.50;99.40;;;;;;5028188;28;20457;-74
2021/09/25 10:34:09;;;;;;;12.30;5.17;;;22.60;92.50;;;;;;5029495;28;20401;-75
2021/09/25 10:36:57;;;;;;;6.43;4.93;;;22.80;92.30;;;;;;5022786;28;20455;-75
2021/09/25 10:39:42;;;;;;;8.20;5.60;;;22.70;82.90;;;;;;5030700;28;20492;-75
2021/09/25 10:42:40;;;;;;;7.47;4.97;;;22.60;77.40;;;;;;5029787;28;20446;-75
2021/09/25 10:45:28;;;;;;;8.70;5.97;;;22.70;73.80;;;;;;5030698;28;20427;-76
2021/09/25 10:48:17;;;;;;;6.60;5.37;;;22.80;75.80;;;;;;5030892;28;20480;-75
2021/09/25 10:51:08;;;;;;;8.30;5.67;;;22.90;73.70;;;;;;5028113;28;20835;-75
2021/09/25 10:54:03;;;;;;;7.53;5.33;;;23.00;69.00;;;;;;5029476;28;20441;-76
2021/09/25 10:56:48;;;;;;;6.10;4.50;;;23.10;68.00;;;;;;5030508;28;20450;-74
2021/09/25 10:59:34;;;;;;;7.60;5.20;;;23.20;70.00;;;;;;5029938;28;21071;-75
2021/09/25 11:02:41;;;;;;;5.50;4.60;;;23.40;73.40;;;;;;5024524;28;20541;-74
2021/09/25 11:06:00;;;;;;;6.60;4.37;;;23.50;74.50;;;;;;5031987;28;20439;-76
2021/09/25 11:08:51;;;;;;;6.67;5.60;;;23.60;74.10;;;;;;5031798;28;20546;-75
2021/09/25 11:11:40;;;;;;;9.93;5.70;;;23.70;67.50;;;;;;5021495;28;21096;-75
2021/09/25 11:14:28;;;;;;;9.23;6.07;;;23.80;65.80;;;;;;5029669;28;20506;-75
2021/09/25 11:17:29;;;;;;;10.00;5.00;;;23.80;62.50;;;;;;5032072;28;20445;-75
2021/09/25 11:20:20;;;;;;;6.43;5.33;;;23.90;65.40;;;;;;5034044;28;20469;-75
2021/09/25 11:23:05;;;;;;;6.93;5.37;;;23.90;64.30;;;;;;5030060;28;20460;-75
2021/09/25 11:25:52;;;;;;;6.27;5.47;;;23.80;68.40;;;;;;5028457;28;20980;-75
2021/09/25 11:28:39;;;;;;;7.60;5.30;;;23.90;66.10;;;;;;5028041;28;20511;-75
2021/09/25 11:31:25;;;;;;;6.77;5.13;;;24.00;65.10;;;;;;5031261;28;20478;-75
2021/09/25 11:34:21;;;;;;;7.63;6.10;;;24.00;65.20;;;;;;5033158;28;20818;-73
2021/09/25 11:37:07;;;;;;;5.87;4.87;;;23.70;63.10;;;;;;5034044;28;20430;-75
2021/09/25 11:39:53;;;;;;;7.50;5.10;;;23.50;62.40;;;;;;5032605;28;20527;-76
2021/09/25 11:42:40;;;;;;;7.80;5.10;;;23.70;63.80;;;;;;5030297;28;20467;-74
2021/09/25 11:45:30;;;;;;;7.50;5.17;;;23.80;62.60;;;;;;5030719;28;20824;-75
2021/09/25 11:48:18;;;;;;;8.47;5.23;;;24.00;62.50;;;;;;5017776;28;20518;-75
2021/09/25 11:51:05;;;;;;;8.63;5.30;;;24.20;63.40;;;;;;5029901;28;21015;-76
2021/09/25 11:53:56;;;;;;;6.70;4.97;;;24.30;60.30;;;;;;5013880;28;20519;-73
2021/09/25 11:56:42;;;;;;;6.33;4.63;;;24.50;59.70;;;;;;5033008;28;20972;-75
2021/09/25 11:59:29;;;;;;;6.03;4.90;;;24.70;59.50;;;;;;5030883;28;20555;-75
2021/09/25 12:02:39;;;;;;;5.90;4.60;;;24.80;58.40;;;;;;5028418;28;20423;-75
2021/09/25 12:05:34;;;;;;;9.03;5.80;;;24.90;54.80;;;;;;5016327;28;20899;-74
2021/09/25 12:08:23;;;;;;;5.53;4.90;;;24.90;56.20;;;;;;5026220;28;20895;-74
2021/09/25 12:11:10;;;;;;;10.40;5.50;;;24.80;56.70;;;;;;5033120;28;20509;-75
2021/09/25 12:13:56;;;;;;;10.47;5.20;;;25.00;59.20;;;;;;5032105;28;20720;-73
2021/09/25 12:16:43;;;;;;;8.03;5.20;;;25.20;59.80;;;;;;5032849;28;20432;-74
2021/09/25 12:19:28;;;;;;;7.20;5.30;;;25.40;59.00;;;;;;5014379;28;20530;-74
2021/09/25 12:22:23;;;;;;;7.07;5.60;;;25.60;57.30;;;;;;5013229;28;20425;-73
2021/09/25 12:25:09;;;;;;;5.63;4.90;;;25.70;53.30;;;;;;5011673;28;20524;-74
2021/09/25 12:27:55;;;;;;;6.33;5.10;;;25.70;54.10;;;;;;5013487;28;20400;-73
2021/09/25 12:30:46;;;;;;;8.00;5.43;;;25.90;52.30;;;;;;5013281;28;20808;-74
2021/09/25 12:33:34;;;;;;;9.10;4.83;;;25.90;51.00;;;;;;5019439;28;20807;-74
2021/09/25 12:36:20;;;;;;;10.37;5.07;;;25.90;50.00;;;;;;5034636;28;20432;-74
2021/09/25 12:39:08;;;;;;;5.93;5.13;;;26.10;50.50;;;;;;5032717;28;21045;-74
2021/09/25 12:41:55;;;;;;;10.40;5.60;;;26.10;51.20;;;;;;5032707;28;20497;-75
2021/09/25 12:44:41;;;;;;;6.77;4.97;;;26.00;51.50;;;;;;5031701;28;20423;-74
2021/09/25 12:47:31;;;;;;;6.03;4.37;;;26.20;50.50;;;;;;5025038;28;20836;-73
2021/09/25 12:50:20;;;;;;;6.20;5.53;;;26.30;51.20;;;;;;5014556;28;20898;-73
2021/09/25 12:53:15;;;;;;;5.43;4.90;;;26.10;49.90;;;;;;5016421;28;20956;-75
2021/09/25 12:56:13;;;;;;;6.20;5.33;;;26.30;51.70;;;;;;5032192;28;20438;-74
2021/09/25 12:59:00;;;;;;;6.43;4.70;;;26.50;49.60;;;;;;5032531;28;20417;-74
2021/09/25 13:01:52;;;;;;;5.70;5.10;;;26.70;50.90;;;;;;5032379;28;20421;-74
2021/09/25 13:04:40;;;;;;;6.90;5.50;;;27.00;51.10;;;;;;5032058;28;20791;-74
2021/09/25 13:07:28;;;;;;;6.83;4.73;;;27.10;48.80;;;;;;5029976;28;20787;-74
2021/09/25 13:10:17;;;;;;;8.87;4.97;;;27.40;48.10;;;;;;5012466;28;20557;-74
2021/09/25 13:13:03;;;;;;;9.07;5.10;;;27.60;49.50;;;;;;5010610;28;20971;-74
2021/09/25 13:15:49;;;;;;;4.93;4.43;;;27.50;46.90;;;;;;5011371;28;20419;-74
2021/09/25 13:18:35;;;;;;;6.87;5.43;;;27.10;47.90;;;;;;5012218;28;20424;-74
2021/09/25 13:21:20;;;;;;;7.70;5.27;;;27.30;52.00;;;;;;5012384;28;20457;-74
2021/09/25 13:24:09;;;;;;;6.50;4.73;;;27.50;52.00;;;;;;5010819;28;20422;-74
2021/09/25 13:26:55;;;;;;;6.07;4.73;;;27.80;50.70;;;;;;5024306;28;20502;-74
2021/09/25 13:29:41;;;;;;;6.10;4.80;;;27.70;45.90;;;;;;5018992;28;20948;-73
2021/09/25 13:32:28;;;;;;;14.70;5.10;;;27.90;47.20;;;;;;5021187;28;20460;-74
2021/09/25 13:35:14;;;;;;;5.67;4.90;;;27.90;46.30;;;;;;5030908;28;20578;-74
2021/09/25 13:38:00;;;;;;;6.37;4.87;;;27.30;46.10;;;;;;5032542;28;20520;-74
2021/09/25 13:40:47;;;;;;;6.43;4.60;;;27.30;46.80;;;;;;5030737;28;20556;-75
2021/09/25 13:43:33;;;;;;;6.60;4.50;;;27.20;45.40;;;;;;5031628;28;20438;-73
2021/09/25 13:46:18;;;;;;;5.73;4.67;;;27.40;46.80;;;;;;5026051;28;20464;-73
2021/09/25 13:49:04;;;;;;;6.23;4.10;;;27.20;46.70;;;;;;5029085;28;20449;-75
2021/09/25 13:51:50;;;;;;;7.00;4.67;;;27.00;46.50;;;;;;5031440;28;20434;-74
2021/09/25 13:54:35;;;;;;;8.33;5.10;;;26.80;46.80;;;;;;5028665;28;20437;-75
2021/09/25 13:57:23;;;;;;;11.73;4.43;;;27.00;50.00;;;;;;5025896;28;20445;-75
2021/09/25 14:00:09;;;;;;;7.23;4.67;;;27.00;51.80;;;;;;5030716;28;20822;-75
2021/09/25 14:02:58;;;;;;;6.63;4.50;;;27.00;49.20;;;;;;5030061;28;20585;-75
2021/09/25 14:05:44;;;;;;;8.47;4.23;;;27.10;46.60;;;;;;5030519;28;20494;-75
2021/09/25 14:08:30;;;;;;;7.17;4.60;;;27.20;48.20;;;;;;5023260;28;20970;-75
2021/09/25 14:11:16;;;;;;;6.03;4.30;;;27.20;52.20;;;;;;5028492;28;20605;-75
2021/09/25 14:14:03;;;;;;;7.20;4.67;;;27.00;52.10;;;;;;5010400;28;20803;-75
2021/09/25 14:16:49;;;;;;;4.87;3.97;;;26.80;52.80;;;;;;5029177;28;20465;-76
2021/09/25 14:19:35;;;;;;;4.13;3.63;;;26.80;56.10;;;;;;5031247;28;20494;-75
2021/09/25 14:22:21;;;;;;;5.93;4.17;;;26.80;55.60;;;;;;5029447;28;20469;-75
2021/09/25 14:25:07;;;;;;;7.50;4.60;;;26.80;55.60;;;;;;5030598;28;20458;-75
2021/09/25 14:27:52;;;;;;;10.23;4.40;;;26.80;53.00;;;;;;5025393;28;20437;-75